sensor_id;sensor_type;location;lat;lon;timestamp;P1;durP1;ratioP1;P2;durP2;ratioP2
29634;SDS011;16557;54.762;56.068;2022-10-17T00:01:28;6.42;;;3.98;;
29634;SDS011;16557;54.762;56.068;2022-10-17T00:03:58;6.25;;;3.70;;
29634;SDS011;16557;54.762;56.068;2022-10-17T00:06:27;7.20;;;3.95;;
29634;SDS011;16557;54.762;56.068;2022-10-17T00:08:56;4.87;;;3.67;;
29634;SDS011;16557;54.762;56.068;2022-10-17T00:11:25;6.28;;;4.47;;
29634;SDS011;16557;54.762;56.068;2022-10-17T00:13:55;7.10;;;3.65;;
29634;SDS011;16557;54.762;56.068;2022-10-17T00:16:34;5.67;;;3.83;;
29634;SDS011;16557;54.762;56.068;2022-10-17T00:19:00;6.87;;;4.30;;
29634;SDS011;16557;54.762;56.068;2022-10-17T00:21:29;7.10;;;4.75;;
29634;SDS011;16557;54.762;56.068;2022-10-17T00:23:59;7.03;;;4.10;;
29634;SDS011;16557;54.762;56.068;2022-10-17T00:26:28;6.80;;;4.15;;
29634;SDS011;16557;54.762;56.068;2022-10-17T00:28:57;7.05;;;3.60;;
29634;SDS011;16557;54.762;56.068;2022-10-17T00:31:26;6.50;;;3.90;;
29634;SDS011;16557;54.762;56.068;2022-10-17T00:33:55;6.10;;;3.42;;
29634;SDS011;16557;54.762;56.068;2022-10-17T00:36:25;5.50;;;4.00;;
29634;SDS011;16557;54.762;56.068;2022-10-17T00:38:55;8.65;;;4.37;;
29634;SDS011;16557;54.762;56.068;2022-10-17T00:41:27;10.68;;;4.78;;
29634;SDS011;16557;54.762;56.068;2022-10-17T00:44:05;7.55;;;4.35;;
29634;SDS011;16557;54.762;56.068;2022-10-17T00:46:37;11.35;;;4.85;;
29634;SDS011;16557;54.762;56.068;2022-10-17T00:49:07;6.70;;;3.98;;
29634;SDS011;16557;54.762;56.068;2022-10-17T00:51:44;7.25;;;3.77;;
29634;SDS011;16557;54.762;56.068;2022-10-17T00:54:11;7.08;;;4.65;;
29634;SDS011;16557;54.762;56.068;2022-10-17T00:56:42;5.83;;;4.05;;
29634;SDS011;16557;54.762;56.068;2022-10-17T00:59:12;5.50;;;3.65;;
29634;SDS011;16557;54.762;56.068;2022-10-17T01:01:45;7.87;;;5.47;;
29634;SDS011;16557;54.762;56.068;2022-10-17T01:04:18;10.15;;;5.20;;
29634;SDS011;16557;54.762;56.068;2022-10-17T01:06:47;7.22;;;4.87;;
29634;SDS011;16557;54.762;56.068;2022-10-17T01:09:16;8.68;;;5.30;;
29634;SDS011;16557;54.762;56.068;2022-10-17T01:11:55;7.22;;;4.87;;
29634;SDS011;16557;54.762;56.068;2022-10-17T01:14:46;9.30;;;4.35;;
29634;SDS011;16557;54.762;56.068;2022-10-17T01:20:17;10.00;;;5.28;;
29634;SDS011;16557;54.762;56.068;2022-10-17T01:23:05;6.30;;;3.80;;
29634;SDS011;16557;54.762;56.068;2022-10-17T01:31:27;9.30;;;4.92;;
29634;SDS011;16557;54.762;56.068;2022-10-17T01:34:18;6.53;;;4.37;;
29634;SDS011;16557;54.762;56.068;2022-10-17T01:37:03;7.83;;;4.80;;
29634;SDS011;16557;54.762;56.068;2022-10-17T01:39:47;9.20;;;4.90;;
29634;SDS011;16557;54.762;56.068;2022-10-17T01:42:24;8.75;;;4.97;;
29634;SDS011;16557;54.762;56.068;2022-10-17T01:45:06;10.00;;;7.15;;
29634;SDS011;16557;54.762;56.068;2022-10-17T01:47:33;10.58;;;4.83;;
29634;SDS011;16557;54.762;56.068;2022-10-17T01:50:06;7.60;;;5.28;;
29634;SDS011;16557;54.762;56.068;2022-10-17T01:52:55;11.65;;;5.37;;
29634;SDS011;16557;54.762;56.068;2022-10-17T01:55:22;9.68;;;5.97;;
29634;SDS011;16557;54.762;56.068;2022-10-17T01:58:09;11.63;;;6.37;;
29634;SDS011;16557;54.762;56.068;2022-10-17T02:00:37;11.03;;;5.33;;
29634;SDS011;16557;54.762;56.068;2022-10-17T02:03:09;10.72;;;5.60;;
29634;SDS011;16557;54.762;56.068;2022-10-17T02:05:43;8.13;;;5.12;;
29634;SDS011;16557;54.762;56.068;2022-10-17T02:08:13;11.68;;;5.72;;
29634;SDS011;16557;54.762;56.068;2022-10-17T02:10:46;8.83;;;6.08;;
29634;SDS011;16557;54.762;56.068;2022-10-17T02:13:41;9.13;;;5.80;;
29634;SDS011;16557;54.762;56.068;2022-10-17T02:16:21;8.73;;;6.05;;
29634;SDS011;16557;54.762;56.068;2022-10-17T02:19:14;8.15;;;6.10;;
29634;SDS011;16557;54.762;56.068;2022-10-17T02:27:23;9.05;;;5.65;;
29634;SDS011;16557;54.762;56.068;2022-10-17T02:30:00;12.40;;;5.95;;
29634;SDS011;16557;54.762;56.068;2022-10-17T02:32:34;8.48;;;6.47;;
29634;SDS011;16557;54.762;56.068;2022-10-17T02:35:12;12.82;;;6.12;;
29634;SDS011;16557;54.762;56.068;2022-10-17T02:37:42;10.80;;;6.03;;
29634;SDS011;16557;54.762;56.068;2022-10-17T02:40:12;13.95;;;6.30;;
29634;SDS011;16557;54.762;56.068;2022-10-17T02:42:43;15.00;;;6.25;;
29634;SDS011;16557;54.762;56.068;2022-10-17T02:45:13;16.20;;;6.83;;
29634;SDS011;16557;54.762;56.068;2022-10-17T02:50:29;13.60;;;6.47;;
29634;SDS011;16557;54.762;56.068;2022-10-17T02:53:19;17.45;;;7.35;;
29634;SDS011;16557;54.762;56.068;2022-10-17T02:55:53;14.75;;;8.48;;
29634;SDS011;16557;54.762;56.068;2022-10-17T02:58:27;13.45;;;6.03;;
29634;SDS011;16557;54.762;56.068;2022-10-17T03:00:57;14.18;;;6.10;;
29634;SDS011;16557;54.762;56.068;2022-10-17T03:03:28;12.73;;;7.33;;
29634;SDS011;16557;54.762;56.068;2022-10-17T03:05:58;12.30;;;5.90;;
29634;SDS011;16557;54.762;56.068;2022-10-17T03:08:27;8.95;;;6.25;;
29634;SDS011;16557;54.762;56.068;2022-10-17T03:10:57;14.70;;;7.30;;
29634;SDS011;16557;54.762;56.068;2022-10-17T03:13:26;9.55;;;6.47;;
29634;SDS011;16557;54.762;56.068;2022-10-17T03:15:56;10.45;;;5.78;;
29634;SDS011;16557;54.762;56.068;2022-10-17T03:18:25;10.95;;;5.15;;
29634;SDS011;16557;54.762;56.068;2022-10-17T03:20:55;7.80;;;4.40;;
29634;SDS011;16557;54.762;56.068;2022-10-17T03:23:24;8.40;;;4.62;;
29634;SDS011;16557;54.762;56.068;2022-10-17T03:25:53;6.55;;;4.22;;
29634;SDS011;16557;54.762;56.068;2022-10-17T03:28:22;9.48;;;4.22;;
29634;SDS011;16557;54.762;56.068;2022-10-17T03:30:52;10.60;;;6.42;;
29634;SDS011;16557;54.762;56.068;2022-10-17T03:33:21;10.60;;;5.65;;
29634;SDS011;16557;54.762;56.068;2022-10-17T03:35:50;8.48;;;4.70;;
29634;SDS011;16557;54.762;56.068;2022-10-17T03:38:19;7.35;;;4.00;;
29634;SDS011;16557;54.762;56.068;2022-10-17T03:40:54;8.95;;;4.62;;
29634;SDS011;16557;54.762;56.068;2022-10-17T03:43:24;9.10;;;4.42;;
29634;SDS011;16557;54.762;56.068;2022-10-17T03:45:53;8.13;;;4.12;;
29634;SDS011;16557;54.762;56.068;2022-10-17T03:48:24;9.38;;;4.62;;
29634;SDS011;16557;54.762;56.068;2022-10-17T03:50:57;14.25;;;6.10;;
29634;SDS011;16557;54.762;56.068;2022-10-17T03:53:28;12.80;;;6.60;;
29634;SDS011;16557;54.762;56.068;2022-10-17T03:56:07;10.90;;;6.20;;
29634;SDS011;16557;54.762;56.068;2022-10-17T03:58:40;11.40;;;6.15;;
29634;SDS011;16557;54.762;56.068;2022-10-17T04:01:11;13.58;;;6.55;;
29634;SDS011;16557;54.762;56.068;2022-10-17T04:03:41;12.70;;;6.33;;
29634;SDS011;16557;54.762;56.068;2022-10-17T04:06:11;10.00;;;6.62;;
29634;SDS011;16557;54.762;56.068;2022-10-17T04:08:40;12.75;;;7.15;;
29634;SDS011;16557;54.762;56.068;2022-10-17T04:11:10;8.63;;;6.25;;
29634;SDS011;16557;54.762;56.068;2022-10-17T04:13:42;10.10;;;6.37;;
29634;SDS011;16557;54.762;56.068;2022-10-17T04:16:13;12.80;;;7.15;;
29634;SDS011;16557;54.762;56.068;2022-10-17T04:18:44;20.12;;;6.90;;
29634;SDS011;16557;54.762;56.068;2022-10-17T04:21:13;14.58;;;6.55;;
29634;SDS011;16557;54.762;56.068;2022-10-17T04:23:42;11.45;;;6.78;;
29634;SDS011;16557;54.762;56.068;2022-10-17T04:26:12;8.83;;;6.08;;
29634;SDS011;16557;54.762;56.068;2022-10-17T04:28:41;13.83;;;6.83;;
29634;SDS011;16557;54.762;56.068;2022-10-17T04:31:12;11.73;;;6.62;;
29634;SDS011;16557;54.762;56.068;2022-10-17T04:33:41;12.20;;;6.60;;
29634;SDS011;16557;54.762;56.068;2022-10-17T04:36:11;11.25;;;6.37;;
29634;SDS011;16557;54.762;56.068;2022-10-17T04:38:44;10.28;;;6.62;;
29634;SDS011;16557;54.762;56.068;2022-10-17T04:41:14;9.85;;;6.37;;
29634;SDS011;16557;54.762;56.068;2022-10-17T04:43:44;13.35;;;6.30;;
29634;SDS011;16557;54.762;56.068;2022-10-17T04:46:13;13.55;;;6.45;;
29634;SDS011;16557;54.762;56.068;2022-10-17T04:48:43;10.85;;;6.83;;
29634;SDS011;16557;54.762;56.068;2022-10-17T04:51:13;13.65;;;6.58;;
29634;SDS011;16557;54.762;56.068;2022-10-17T04:53:44;10.53;;;6.37;;
29634;SDS011;16557;54.762;56.068;2022-10-17T04:56:17;18.35;;;7.78;;
29634;SDS011;16557;54.762;56.068;2022-10-17T04:58:48;10.75;;;7.22;;
29634;SDS011;16557;54.762;56.068;2022-10-17T05:01:18;21.00;;;9.05;;
29634;SDS011;16557;54.762;56.068;2022-10-17T05:03:49;19.98;;;6.90;;
29634;SDS011;16557;54.762;56.068;2022-10-17T05:06:19;11.65;;;7.20;;
29634;SDS011;16557;54.762;56.068;2022-10-17T05:08:50;10.82;;;6.75;;
29634;SDS011;16557;54.762;56.068;2022-10-17T05:11:21;11.38;;;6.42;;
29634;SDS011;16557;54.762;56.068;2022-10-17T05:13:57;13.65;;;8.40;;
29634;SDS011;16557;54.762;56.068;2022-10-17T05:16:22;19.30;;;7.55;;
29634;SDS011;16557;54.762;56.068;2022-10-17T05:18:53;13.55;;;7.12;;
29634;SDS011;16557;54.762;56.068;2022-10-17T05:21:23;12.47;;;7.30;;
29634;SDS011;16557;54.762;56.068;2022-10-17T05:23:53;11.60;;;6.65;;
29634;SDS011;16557;54.762;56.068;2022-10-17T05:26:23;12.68;;;6.87;;
29634;SDS011;16557;54.762;56.068;2022-10-17T05:28:53;11.40;;;6.87;;
29634;SDS011;16557;54.762;56.068;2022-10-17T05:31:22;11.78;;;7.05;;
29634;SDS011;16557;54.762;56.068;2022-10-17T05:33:51;10.72;;;7.47;;
29634;SDS011;16557;54.762;56.068;2022-10-17T05:36:21;11.90;;;6.53;;
29634;SDS011;16557;54.762;56.068;2022-10-17T05:38:50;12.53;;;7.72;;
29634;SDS011;16557;54.762;56.068;2022-10-17T05:41:19;15.23;;;8.03;;
29634;SDS011;16557;54.762;56.068;2022-10-17T05:43:49;16.45;;;8.83;;
29634;SDS011;16557;54.762;56.068;2022-10-17T05:46:18;11.10;;;7.70;;
29634;SDS011;16557;54.762;56.068;2022-10-17T05:48:47;13.25;;;8.30;;
29634;SDS011;16557;54.762;56.068;2022-10-17T05:51:16;15.18;;;7.53;;
29634;SDS011;16557;54.762;56.068;2022-10-17T05:53:45;15.20;;;7.47;;
29634;SDS011;16557;54.762;56.068;2022-10-17T05:56:15;13.53;;;7.28;;
29634;SDS011;16557;54.762;56.068;2022-10-17T05:58:45;20.72;;;8.13;;
29634;SDS011;16557;54.762;56.068;2022-10-17T06:01:15;16.65;;;7.05;;
29634;SDS011;16557;54.762;56.068;2022-10-17T06:03:47;25.35;;;7.05;;
29634;SDS011;16557;54.762;56.068;2022-10-17T06:06:48;11.03;;;7.17;;
29634;SDS011;16557;54.762;56.068;2022-10-17T06:09:22;12.55;;;7.03;;
29634;SDS011;16557;54.762;56.068;2022-10-17T06:11:52;13.35;;;6.50;;
29634;SDS011;16557;54.762;56.068;2022-10-17T06:14:21;15.05;;;7.30;;
29634;SDS011;16557;54.762;56.068;2022-10-17T06:16:50;16.75;;;7.58;;
29634;SDS011;16557;54.762;56.068;2022-10-17T06:19:19;13.90;;;6.87;;
29634;SDS011;16557;54.762;56.068;2022-10-17T06:21:49;9.58;;;6.15;;
29634;SDS011;16557;54.762;56.068;2022-10-17T06:24:18;11.22;;;6.40;;
29634;SDS011;16557;54.762;56.068;2022-10-17T06:26:47;12.58;;;7.20;;
29634;SDS011;16557;54.762;56.068;2022-10-17T06:29:17;10.00;;;6.90;;
29634;SDS011;16557;54.762;56.068;2022-10-17T06:31:46;15.83;;;7.42;;
29634;SDS011;16557;54.762;56.068;2022-10-17T06:34:16;12.58;;;6.42;;
29634;SDS011;16557;54.762;56.068;2022-10-17T06:36:45;16.50;;;9.15;;
29634;SDS011;16557;54.762;56.068;2022-10-17T06:39:14;15.45;;;7.62;;
29634;SDS011;16557;54.762;56.068;2022-10-17T06:41:44;13.58;;;6.60;;
29634;SDS011;16557;54.762;56.068;2022-10-17T06:44:13;8.98;;;5.78;;
29634;SDS011;16557;54.762;56.068;2022-10-17T06:46:42;14.53;;;6.65;;
29634;SDS011;16557;54.762;56.068;2022-10-17T06:49:11;15.15;;;7.30;;
29634;SDS011;16557;54.762;56.068;2022-10-17T06:51:41;12.82;;;6.12;;
29634;SDS011;16557;54.762;56.068;2022-10-17T06:54:10;9.25;;;5.97;;
29634;SDS011;16557;54.762;56.068;2022-10-17T06:56:39;10.43;;;6.05;;
29634;SDS011;16557;54.762;56.068;2022-10-17T06:59:08;26.95;;;7.75;;
29634;SDS011;16557;54.762;56.068;2022-10-17T07:01:38;13.50;;;7.35;;
29634;SDS011;16557;54.762;56.068;2022-10-17T07:04:07;13.05;;;6.95;;
29634;SDS011;16557;54.762;56.068;2022-10-17T07:06:36;14.90;;;7.97;;
29634;SDS011;16557;54.762;56.068;2022-10-17T07:09:06;12.65;;;6.35;;
29634;SDS011;16557;54.762;56.068;2022-10-17T07:11:35;15.95;;;6.87;;
29634;SDS011;16557;54.762;56.068;2022-10-17T07:14:06;10.65;;;5.85;;
29634;SDS011;16557;54.762;56.068;2022-10-17T07:16:35;14.13;;;5.87;;
29634;SDS011;16557;54.762;56.068;2022-10-17T07:19:04;13.35;;;6.00;;
29634;SDS011;16557;54.762;56.068;2022-10-17T07:21:33;11.38;;;6.35;;
29634;SDS011;16557;54.762;56.068;2022-10-17T07:24:03;14.50;;;7.58;;
29634;SDS011;16557;54.762;56.068;2022-10-17T07:26:33;14.95;;;6.42;;
29634;SDS011;16557;54.762;56.068;2022-10-17T07:29:02;12.82;;;6.78;;
29634;SDS011;16557;54.762;56.068;2022-10-17T07:31:33;16.30;;;6.50;;
29634;SDS011;16557;54.762;56.068;2022-10-17T07:34:02;13.05;;;6.47;;
29634;SDS011;16557;54.762;56.068;2022-10-17T07:36:32;14.55;;;7.17;;
29634;SDS011;16557;54.762;56.068;2022-10-17T07:39:01;11.90;;;6.47;;
29634;SDS011;16557;54.762;56.068;2022-10-17T07:41:30;12.93;;;6.17;;
29634;SDS011;16557;54.762;56.068;2022-10-17T07:43:59;11.18;;;6.37;;
29634;SDS011;16557;54.762;56.068;2022-10-17T07:46:29;13.40;;;6.40;;
29634;SDS011;16557;54.762;56.068;2022-10-17T07:48:58;8.45;;;5.33;;
29634;SDS011;16557;54.762;56.068;2022-10-17T07:51:27;10.85;;;6.37;;
29634;SDS011;16557;54.762;56.068;2022-10-17T07:53:56;11.18;;;7.15;;
29634;SDS011;16557;54.762;56.068;2022-10-17T07:56:25;9.60;;;6.00;;
29634;SDS011;16557;54.762;56.068;2022-10-17T07:58:55;12.85;;;6.12;;
29634;SDS011;16557;54.762;56.068;2022-10-17T08:01:25;10.98;;;6.40;;
29634;SDS011;16557;54.762;56.068;2022-10-17T08:03:54;13.95;;;6.10;;
29634;SDS011;16557;54.762;56.068;2022-10-17T08:06:23;11.95;;;8.78;;
29634;SDS011;16557;54.762;56.068;2022-10-17T08:08:52;11.08;;;6.85;;
29634;SDS011;16557;54.762;56.068;2022-10-17T08:11:24;10.65;;;6.15;;
29634;SDS011;16557;54.762;56.068;2022-10-17T08:13:53;11.48;;;6.78;;
29634;SDS011;16557;54.762;56.068;2022-10-17T08:16:22;12.40;;;6.03;;
29634;SDS011;16557;54.762;56.068;2022-10-17T08:18:51;10.68;;;6.78;;
29634;SDS011;16557;54.762;56.068;2022-10-17T08:21:20;11.40;;;5.60;;
29634;SDS011;16557;54.762;56.068;2022-10-17T08:23:50;10.60;;;5.33;;
29634;SDS011;16557;54.762;56.068;2022-10-17T08:26:19;11.10;;;6.47;;
29634;SDS011;16557;54.762;56.068;2022-10-17T08:28:48;11.88;;;6.37;;
29634;SDS011;16557;54.762;56.068;2022-10-17T08:31:18;12.47;;;5.22;;
29634;SDS011;16557;54.762;56.068;2022-10-17T08:33:48;9.53;;;5.10;;
29634;SDS011;16557;54.762;56.068;2022-10-17T08:36:19;13.22;;;6.00;;
29634;SDS011;16557;54.762;56.068;2022-10-17T08:38:49;11.53;;;5.42;;
29634;SDS011;16557;54.762;56.068;2022-10-17T08:41:35;6.58;;;4.17;;
29634;SDS011;16557;54.762;56.068;2022-10-17T08:44:14;9.50;;;4.27;;
29634;SDS011;16557;54.762;56.068;2022-10-17T08:46:56;13.85;;;4.70;;
29634;SDS011;16557;54.762;56.068;2022-10-17T08:49:36;10.88;;;4.37;;
29634;SDS011;16557;54.762;56.068;2022-10-17T08:52:13;9.95;;;4.67;;
29634;SDS011;16557;54.762;56.068;2022-10-17T08:54:45;12.82;;;4.83;;
29634;SDS011;16557;54.762;56.068;2022-10-17T08:57:15;11.08;;;5.87;;
29634;SDS011;16557;54.762;56.068;2022-10-17T08:59:49;9.15;;;5.28;;
29634;SDS011;16557;54.762;56.068;2022-10-17T09:05:22;5.05;;;2.67;;
29634;SDS011;16557;54.762;56.068;2022-10-17T09:07:57;7.05;;;2.65;;
29634;SDS011;16557;54.762;56.068;2022-10-17T09:15:33;12.55;;;2.90;;
29634;SDS011;16557;54.762;56.068;2022-10-17T09:18:25;13.40;;;4.65;;
29634;SDS011;16557;54.762;56.068;2022-10-17T09:23:54;6.92;;;3.70;;
29634;SDS011;16557;54.762;56.068;2022-10-17T09:26:25;9.58;;;2.30;;
29634;SDS011;16557;54.762;56.068;2022-10-17T09:28:55;4.95;;;1.80;;
29634;SDS011;16557;54.762;56.068;2022-10-17T09:31:39;5.78;;;1.80;;
29634;SDS011;16557;54.762;56.068;2022-10-17T09:34:10;3.55;;;2.10;;
29634;SDS011;16557;54.762;56.068;2022-10-17T09:36:40;3.87;;;1.92;;
29634;SDS011;16557;54.762;56.068;2022-10-17T09:39:11;5.17;;;2.00;;
29634;SDS011;16557;54.762;56.068;2022-10-17T09:41:48;6.78;;;2.92;;
29634;SDS011;16557;54.762;56.068;2022-10-17T09:44:20;3.12;;;1.77;;
29634;SDS011;16557;54.762;56.068;2022-10-17T09:46:53;1.57;;;0.90;;
29634;SDS011;16557;54.762;56.068;2022-10-17T09:49:42;2.60;;;1.40;;
29634;SDS011;16557;54.762;56.068;2022-10-17T09:52:24;4.10;;;1.40;;
29634;SDS011;16557;54.762;56.068;2022-10-17T09:55:19;7.97;;;2.33;;
29634;SDS011;16557;54.762;56.068;2022-10-17T09:57:51;4.40;;;1.98;;
29634;SDS011;16557;54.762;56.068;2022-10-17T10:00:30;7.58;;;3.08;;
29634;SDS011;16557;54.762;56.068;2022-10-17T10:03:07;6.70;;;2.90;;
29634;SDS011;16557;54.762;56.068;2022-10-17T10:05:39;4.53;;;1.80;;
29634;SDS011;16557;54.762;56.068;2022-10-17T10:08:13;5.60;;;2.05;;
29634;SDS011;16557;54.762;56.068;2022-10-17T10:10:43;4.55;;;2.58;;
29634;SDS011;16557;54.762;56.068;2022-10-17T10:15:47;5.37;;;3.02;;
29634;SDS011;16557;54.762;56.068;2022-10-17T10:23:43;8.60;;;3.12;;
29634;SDS011;16557;54.762;56.068;2022-10-17T10:26:31;7.33;;;3.08;;
29634;SDS011;16557;54.762;56.068;2022-10-17T10:28:56;7.00;;;3.80;;
29634;SDS011;16557;54.762;56.068;2022-10-17T10:31:32;5.40;;;2.92;;
29634;SDS011;16557;54.762;56.068;2022-10-17T10:41:54;12.98;;;4.08;;
29634;SDS011;16557;54.762;56.068;2022-10-17T10:44:25;6.90;;;4.10;;
29634;SDS011;16557;54.762;56.068;2022-10-17T10:47:05;5.33;;;3.00;;
29634;SDS011;16557;54.762;56.068;2022-10-17T10:49:35;7.15;;;3.47;;
29634;SDS011;16557;54.762;56.068;2022-10-17T10:52:06;11.80;;;3.33;;
29634;SDS011;16557;54.762;56.068;2022-10-17T10:54:42;9.43;;;2.95;;
29634;SDS011;16557;54.762;56.068;2022-10-17T10:57:16;6.22;;;2.92;;
29634;SDS011;16557;54.762;56.068;2022-10-17T10:59:55;8.28;;;2.70;;
29634;SDS011;16557;54.762;56.068;2022-10-17T11:02:36;5.97;;;2.50;;
29634;SDS011;16557;54.762;56.068;2022-10-17T11:05:11;4.53;;;2.62;;
29634;SDS011;16557;54.762;56.068;2022-10-17T11:13:14;7.67;;;2.72;;
29634;SDS011;16557;54.762;56.068;2022-10-17T11:15:46;7.05;;;3.17;;
29634;SDS011;16557;54.762;56.068;2022-10-17T11:21:18;6.90;;;2.55;;
29634;SDS011;16557;54.762;56.068;2022-10-17T11:24:14;7.53;;;2.12;;
29634;SDS011;16557;54.762;56.068;2022-10-17T11:26:45;3.17;;;2.12;;
29634;SDS011;16557;54.762;56.068;2022-10-17T11:29:34;4.37;;;2.20;;
29634;SDS011;16557;54.762;56.068;2022-10-17T11:32:01;5.33;;;2.60;;
29634;SDS011;16557;54.762;56.068;2022-10-17T11:34:41;6.47;;;3.40;;
29634;SDS011;16557;54.762;56.068;2022-10-17T11:37:22;9.33;;;2.45;;
29634;SDS011;16557;54.762;56.068;2022-10-17T11:39:50;6.50;;;2.62;;
29634;SDS011;16557;54.762;56.068;2022-10-17T11:42:32;3.10;;;2.08;;
29634;SDS011;16557;54.762;56.068;2022-10-17T11:45:13;4.78;;;2.58;;
29634;SDS011;16557;54.762;56.068;2022-10-17T11:47:50;6.10;;;2.92;;
29634;SDS011;16557;54.762;56.068;2022-10-17T11:50:36;11.00;;;3.80;;
29634;SDS011;16557;54.762;56.068;2022-10-17T11:53:13;8.43;;;3.95;;
29634;SDS011;16557;54.762;56.068;2022-10-17T11:55:42;6.50;;;3.02;;
29634;SDS011;16557;54.762;56.068;2022-10-17T12:00:56;4.75;;;3.22;;
29634;SDS011;16557;54.762;56.068;2022-10-17T12:11:55;10.88;;;2.60;;
29634;SDS011;16557;54.762;56.068;2022-10-17T12:17:27;3.35;;;1.50;;
29634;SDS011;16557;54.762;56.068;2022-10-17T12:22:53;7.40;;;2.60;;
29634;SDS011;16557;54.762;56.068;2022-10-17T12:25:35;3.70;;;1.72;;
29634;SDS011;16557;54.762;56.068;2022-10-17T12:30:57;7.40;;;2.10;;
29634;SDS011;16557;54.762;56.068;2022-10-17T12:33:32;6.65;;;2.22;;
29634;SDS011;16557;54.762;56.068;2022-10-17T12:38:49;5.45;;;1.92;;
29634;SDS011;16557;54.762;56.068;2022-10-17T12:46:48;6.58;;;2.58;;
29634;SDS011;16557;54.762;56.068;2022-10-17T12:54:53;5.25;;;2.77;;
29634;SDS011;16557;54.762;56.068;2022-10-17T13:02:51;7.00;;;4.62;;
29634;SDS011;16557;54.762;56.068;2022-10-17T13:05:27;11.90;;;3.22;;
29634;SDS011;16557;54.762;56.068;2022-10-17T13:07:59;9.73;;;3.77;;
29634;SDS011;16557;54.762;56.068;2022-10-17T13:10:31;7.80;;;3.40;;
29634;SDS011;16557;54.762;56.068;2022-10-17T13:13:09;5.72;;;3.05;;
29634;SDS011;16557;54.762;56.068;2022-10-17T13:15:34;9.00;;;3.87;;
29634;SDS011;16557;54.762;56.068;2022-10-17T13:18:04;8.80;;;5.03;;
29634;SDS011;16557;54.762;56.068;2022-10-17T13:20:33;8.63;;;4.67;;
29634;SDS011;16557;54.762;56.068;2022-10-17T13:23:02;9.80;;;4.58;;
29634;SDS011;16557;54.762;56.068;2022-10-17T13:25:32;9.85;;;4.35;;
29634;SDS011;16557;54.762;56.068;2022-10-17T13:28:05;6.70;;;4.05;;
29634;SDS011;16557;54.762;56.068;2022-10-17T13:30:36;6.72;;;3.72;;
29634;SDS011;16557;54.762;56.068;2022-10-17T13:35:59;8.40;;;3.92;;
29634;SDS011;16557;54.762;56.068;2022-10-17T13:38:30;10.58;;;4.17;;
29634;SDS011;16557;54.762;56.068;2022-10-17T13:41:01;6.22;;;3.55;;
29634;SDS011;16557;54.762;56.068;2022-10-17T13:43:31;8.90;;;4.08;;
29634;SDS011;16557;54.762;56.068;2022-10-17T13:46:01;9.35;;;5.62;;
29634;SDS011;16557;54.762;56.068;2022-10-17T13:48:33;12.65;;;5.90;;
29634;SDS011;16557;54.762;56.068;2022-10-17T13:51:04;12.07;;;6.53;;
29634;SDS011;16557;54.762;56.068;2022-10-17T13:53:35;9.83;;;4.85;;
29634;SDS011;16557;54.762;56.068;2022-10-17T13:58:59;16.48;;;9.50;;
29634;SDS011;16557;54.762;56.068;2022-10-17T14:01:25;14.00;;;7.83;;
29634;SDS011;16557;54.762;56.068;2022-10-17T14:03:54;18.12;;;9.70;;
29634;SDS011;16557;54.762;56.068;2022-10-17T14:06:24;16.50;;;8.20;;
29634;SDS011;16557;54.762;56.068;2022-10-17T14:08:58;12.37;;;6.75;;
29634;SDS011;16557;54.762;56.068;2022-10-17T14:11:41;9.43;;;5.50;;
29634;SDS011;16557;54.762;56.068;2022-10-17T14:14:15;8.08;;;4.25;;
29634;SDS011;16557;54.762;56.068;2022-10-17T14:16:46;8.23;;;3.90;;
29634;SDS011;16557;54.762;56.068;2022-10-17T14:19:21;7.75;;;4.35;;
29634;SDS011;16557;54.762;56.068;2022-10-17T14:24:43;7.58;;;4.33;;
29634;SDS011;16557;54.762;56.068;2022-10-17T14:27:32;14.55;;;5.58;;
29634;SDS011;16557;54.762;56.068;2022-10-17T14:30:06;8.28;;;5.80;;
29634;SDS011;16557;54.762;56.068;2022-10-17T14:33:02;10.85;;;6.15;;
29634;SDS011;16557;54.762;56.068;2022-10-17T14:35:27;12.78;;;7.83;;
29634;SDS011;16557;54.762;56.068;2022-10-17T14:37:58;9.80;;;6.15;;
29634;SDS011;16557;54.762;56.068;2022-10-17T14:40:29;8.50;;;5.25;;
29634;SDS011;16557;54.762;56.068;2022-10-17T14:43:00;11.50;;;6.03;;
29634;SDS011;16557;54.762;56.068;2022-10-17T14:45:33;13.93;;;5.78;;
29634;SDS011;16557;54.762;56.068;2022-10-17T14:51:03;8.60;;;5.28;;
29634;SDS011;16557;54.762;56.068;2022-10-17T14:53:30;17.40;;;7.97;;
29634;SDS011;16557;54.762;56.068;2022-10-17T14:56:01;12.93;;;6.62;;
29634;SDS011;16557;54.762;56.068;2022-10-17T14:58:32;9.95;;;5.37;;
29634;SDS011;16557;54.762;56.068;2022-10-17T15:01:01;13.22;;;5.87;;
29634;SDS011;16557;54.762;56.068;2022-10-17T15:03:30;14.00;;;5.47;;
29634;SDS011;16557;54.762;56.068;2022-10-17T15:06:07;12.88;;;6.33;;
29634;SDS011;16557;54.762;56.068;2022-10-17T15:08:38;14.18;;;5.47;;
29634;SDS011;16557;54.762;56.068;2022-10-17T15:11:08;13.48;;;5.78;;
29634;SDS011;16557;54.762;56.068;2022-10-17T15:13:38;9.38;;;5.95;;
29634;SDS011;16557;54.762;56.068;2022-10-17T15:16:29;8.80;;;5.00;;
29634;SDS011;16557;54.762;56.068;2022-10-17T15:18:59;9.40;;;5.60;;
29634;SDS011;16557;54.762;56.068;2022-10-17T15:21:32;9.25;;;5.50;;
29634;SDS011;16557;54.762;56.068;2022-10-17T15:24:02;9.08;;;5.42;;
29634;SDS011;16557;54.762;56.068;2022-10-17T15:26:32;9.78;;;6.50;;
29634;SDS011;16557;54.762;56.068;2022-10-17T15:29:02;11.83;;;7.47;;
29634;SDS011;16557;54.762;56.068;2022-10-17T15:31:32;13.88;;;6.60;;
29634;SDS011;16557;54.762;56.068;2022-10-17T15:34:02;11.15;;;6.33;;
29634;SDS011;16557;54.762;56.068;2022-10-17T15:36:33;16.48;;;7.10;;
29634;SDS011;16557;54.762;56.068;2022-10-17T15:39:03;13.28;;;7.47;;
29634;SDS011;16557;54.762;56.068;2022-10-17T15:41:32;10.65;;;5.87;;
29634;SDS011;16557;54.762;56.068;2022-10-17T15:44:02;13.45;;;6.10;;
29634;SDS011;16557;54.762;56.068;2022-10-17T15:46:32;9.88;;;5.75;;
29634;SDS011;16557;54.762;56.068;2022-10-17T15:49:03;13.60;;;7.60;;
29634;SDS011;16557;54.762;56.068;2022-10-17T15:51:34;11.17;;;6.10;;
29634;SDS011;16557;54.762;56.068;2022-10-17T15:54:04;9.58;;;5.75;;
29634;SDS011;16557;54.762;56.068;2022-10-17T15:59:14;13.13;;;5.37;;
29634;SDS011;16557;54.762;56.068;2022-10-17T16:01:45;9.18;;;5.17;;
29634;SDS011;16557;54.762;56.068;2022-10-17T16:04:14;10.85;;;5.55;;
29634;SDS011;16557;54.762;56.068;2022-10-17T16:06:44;9.58;;;5.45;;
29634;SDS011;16557;54.762;56.068;2022-10-17T16:09:15;8.33;;;4.83;;
29634;SDS011;16557;54.762;56.068;2022-10-17T16:11:44;10.75;;;5.90;;
29634;SDS011;16557;54.762;56.068;2022-10-17T16:14:14;14.30;;;9.43;;
29634;SDS011;16557;54.762;56.068;2022-10-17T16:16:44;14.50;;;7.05;;
29634;SDS011;16557;54.762;56.068;2022-10-17T16:19:13;11.55;;;7.12;;
29634;SDS011;16557;54.762;56.068;2022-10-17T16:21:43;9.88;;;6.33;;
29634;SDS011;16557;54.762;56.068;2022-10-17T16:24:12;13.15;;;6.95;;
29634;SDS011;16557;54.762;56.068;2022-10-17T16:26:41;11.00;;;6.92;;
29634;SDS011;16557;54.762;56.068;2022-10-17T16:29:12;11.53;;;7.37;;
29634;SDS011;16557;54.762;56.068;2022-10-17T16:31:42;12.23;;;7.90;;
29634;SDS011;16557;54.762;56.068;2022-10-17T16:34:12;14.28;;;8.35;;
29634;SDS011;16557;54.762;56.068;2022-10-17T16:36:42;13.83;;;6.95;;
29634;SDS011;16557;54.762;56.068;2022-10-17T16:39:11;15.25;;;10.45;;
29634;SDS011;16557;54.762;56.068;2022-10-17T16:41:40;17.90;;;7.92;;
29634;SDS011;16557;54.762;56.068;2022-10-17T16:44:10;10.48;;;6.37;;